Terminal Aerodrome Forecast
Issued by NWS

Home | Current Version | Previous Version | Text Only | Print | Product List | Glossary On
Versions: 1 2 3 4 5 6 7 8 9 10 11 12 13 14 15
000
FTUS46 KLOX 011126
TAFPMD
TAF
KPMD 011126Z 0112/0212 22010KT P6SM SCT100 BKN200
     FM011800 24014G22KT P6SM BKN120 OVC250
     FM012200 23020G28KT P6SM SCT080 BKN120
     FM020200 23015KT P6SM SCT150
     FM020800 20008KT P6SM SCT150=

USA.gov is the U.S. government's official web portal to all federal, state and local government web resources and services.